createdAt,value
2018-07-11T00:01:27.440Z,99.90
2018-07-11T00:03:55.700Z,99.90
2018-07-11T00:06:25.214Z,99.90
2018-07-11T00:08:53.400Z,99.90
2018-07-11T00:11:21.599Z,99.90
2018-07-11T00:13:49.871Z,99.90
2018-07-11T00:16:18.439Z,99.90
2018-07-11T00:18:46.732Z,99.90
2018-07-11T00:21:14.945Z,99.90
2018-07-11T00:23:43.177Z,99.90
2018-07-11T00:26:12.095Z,99.90
2018-07-11T00:28:40.408Z,99.90
2018-07-11T00:31:08.628Z,99.90
2018-07-11T00:33:36.908Z,99.90
2018-07-11T00:36:05.194Z,99.90
2018-07-11T00:38:33.555Z,99.90
2018-07-11T00:41:02.447Z,99.90
2018-07-11T00:43:31.165Z,99.90
2018-07-11T00:45:59.902Z,99.90
2018-07-11T00:48:28.165Z,99.90
2018-07-11T00:50:56.882Z,99.90
2018-07-11T00:53:25.071Z,99.90
2018-07-11T00:55:53.317Z,99.90
2018-07-11T00:58:26.980Z,99.90
2018-07-11T01:01:16.415Z,99.90
2018-07-11T01:03:50.749Z,99.90
2018-07-11T01:06:19.038Z,99.90
2018-07-11T01:08:49.318Z,99.90
2018-07-11T01:11:17.827Z,99.90
2018-07-11T01:13:47.268Z,99.90
2018-07-11T01:16:16.115Z,99.90
2018-07-11T01:19:16.659Z,99.90
2018-07-11T01:21:45.316Z,99.90
2018-07-11T01:24:13.580Z,99.90
2018-07-11T01:26:41.786Z,99.90
2018-07-11T01:29:10.177Z,99.90
2018-07-11T01:31:38.972Z,99.90
2018-07-11T01:34:07.300Z,99.90
2018-07-11T01:36:36.064Z,99.90
2018-07-11T01:39:04.714Z,99.90
2018-07-11T01:41:32.898Z,99.90
2018-07-11T01:44:01.026Z,99.90
2018-07-11T01:46:42.695Z,99.90
2018-07-11T01:49:10.854Z,99.90
2018-07-11T01:53:51.174Z,99.90
2018-07-11T01:56:19.348Z,99.90
2018-07-11T01:58:47.744Z,99.90
2018-07-11T02:01:15.972Z,99.90
2018-07-11T02:03:44.150Z,99.90
2018-07-11T02:06:12.317Z,99.90
2018-07-11T02:08:40.458Z,99.90
2018-07-11T02:11:08.768Z,99.90
2018-07-11T02:13:36.923Z,99.90
2018-07-11T02:16:05.262Z,99.90
2018-07-11T02:18:35.744Z,99.90
2018-07-11T02:21:04.384Z,99.90
2018-07-11T02:23:34.666Z,99.90
2018-07-11T02:26:02.880Z,99.90
2018-07-11T02:28:31.057Z,99.90
2018-07-11T02:30:59.314Z,99.90
2018-07-11T02:33:27.492Z,99.90
2018-07-11T02:35:55.755Z,99.90
2018-07-11T02:38:23.915Z,99.90
2018-07-11T02:40:52.091Z,99.90
2018-07-11T02:43:20.239Z,99.90
2018-07-11T02:45:48.428Z,99.90
2018-07-11T02:48:16.581Z,99.90
2018-07-11T02:50:44.790Z,99.90
2018-07-11T02:53:18.731Z,99.90
2018-07-11T02:55:47.099Z,99.90
2018-07-11T02:58:15.281Z,99.90
2018-07-11T03:00:43.451Z,99.90
2018-07-11T03:03:11.578Z,99.90
2018-07-11T03:05:39.721Z,99.90
2018-07-11T03:08:07.884Z,99.90
2018-07-11T03:10:36.760Z,99.90
2018-07-11T03:13:04.943Z,99.90
2018-07-11T03:15:33.113Z,99.90
2018-07-11T03:18:01.370Z,99.90
2018-07-11T03:20:29.566Z,99.90
2018-07-11T03:22:57.733Z,99.90
2018-07-11T03:25:25.873Z,99.90
2018-07-11T03:27:54.109Z,99.90
2018-07-11T03:30:22.263Z,99.90
2018-07-11T03:32:50.470Z,99.90
2018-07-11T03:35:18.639Z,99.90
2018-07-11T03:37:46.783Z,99.90
2018-07-11T03:40:14.896Z,99.90
2018-07-11T03:42:43.048Z,99.90
2018-07-11T03:45:11.188Z,99.90
2018-07-11T03:47:39.320Z,99.90
2018-07-11T03:50:07.508Z,99.90
2018-07-11T03:52:35.669Z,99.90
2018-07-11T03:55:03.820Z,99.90
2018-07-11T03:57:32.015Z,99.90
2018-07-11T04:00:00.169Z,99.90
2018-07-11T04:02:28.341Z,99.90
2018-07-11T04:04:56.680Z,99.90
2018-07-11T04:07:24.729Z,99.90
2018-07-11T04:09:52.874Z,99.90
2018-07-11T04:12:21.081Z,99.90
2018-07-11T04:14:49.261Z,99.90
2018-07-11T04:17:17.438Z,99.90
2018-07-11T04:19:45.636Z,99.90
2018-07-11T04:22:13.804Z,99.90
2018-07-11T04:24:41.977Z,99.90
2018-07-11T04:27:10.172Z,99.90
2018-07-11T04:29:38.316Z,99.90
2018-07-11T04:32:06.492Z,99.90
2018-07-11T04:34:34.698Z,99.90
2018-07-11T04:37:03.340Z,99.90
2018-07-11T04:39:31.536Z,99.90
2018-07-11T04:41:59.720Z,99.90
2018-07-11T04:44:27.875Z,99.90
2018-07-11T04:46:56.035Z,99.90
2018-07-11T04:49:24.168Z,99.90
2018-07-11T04:51:52.819Z,99.90
2018-07-11T04:54:20.958Z,99.90
2018-07-11T04:56:49.102Z,99.90
2018-07-11T04:59:17.252Z,99.90
2018-07-11T05:01:45.401Z,99.90
2018-07-11T05:04:14.171Z,99.90
2018-07-11T05:06:42.340Z,99.90
2018-07-11T05:09:11.434Z,99.90
2018-07-11T05:11:39.615Z,99.90
2018-07-11T05:14:07.822Z,99.90
2018-07-11T05:16:36.071Z,99.90
2018-07-11T05:19:04.779Z,99.90
2018-07-11T05:21:32.980Z,99.90
2018-07-11T05:24:01.155Z,99.90
2018-07-11T05:26:29.338Z,99.90
2018-07-11T05:28:57.527Z,99.90
2018-07-11T05:31:25.701Z,99.90
2018-07-11T05:33:53.908Z,99.90
2018-07-11T05:36:22.179Z,99.90
2018-07-11T05:38:50.322Z,99.90
2018-07-11T05:41:18.516Z,99.90
2018-07-11T05:43:46.700Z,99.90
2018-07-11T05:46:14.873Z,99.90
2018-07-11T05:48:43.057Z,99.90
2018-07-11T05:51:11.232Z,99.90
2018-07-11T05:53:39.402Z,99.90
2018-07-11T05:56:07.592Z,99.90
2018-07-11T05:58:35.853Z,99.90
2018-07-11T06:01:04.057Z,99.90
2018-07-11T06:03:32.302Z,99.90
2018-07-11T06:06:00.525Z,99.90
2018-07-11T06:08:28.697Z,99.90
2018-07-11T06:10:56.873Z,99.90
2018-07-11T06:13:25.036Z,99.90
2018-07-11T06:15:53.135Z,99.90
2018-07-11T06:18:23.097Z,99.90
2018-07-11T06:20:51.211Z,99.90
2018-07-11T06:23:19.357Z,99.90
2018-07-11T06:25:47.472Z,99.90
2018-07-11T06:28:15.613Z,99.90
2018-07-11T06:30:43.764Z,99.90
2018-07-11T06:35:39.877Z,99.90
2018-07-11T06:38:08.065Z,99.90
2018-07-11T06:40:36.199Z,99.90
2018-07-11T06:43:04.357Z,99.90
2018-07-11T06:45:32.532Z,99.90
2018-07-11T06:48:00.809Z,99.90
2018-07-11T06:50:28.873Z,99.90
2018-07-11T06:52:57.051Z,99.90
2018-07-11T06:55:25.205Z,99.90
2018-07-11T06:57:53.419Z,99.90
2018-07-11T07:00:21.568Z,99.90
2018-07-11T07:02:49.702Z,99.90
2018-07-11T07:05:17.825Z,99.90
2018-07-11T07:07:45.979Z,99.90
2018-07-11T07:10:14.143Z,99.90
2018-07-11T07:12:42.308Z,99.90
2018-07-11T07:15:10.452Z,99.90
2018-07-11T07:17:38.618Z,99.90
2018-07-11T07:20:06.758Z,99.90
2018-07-11T07:22:35.316Z,99.90
2018-07-11T07:25:03.416Z,99.90
2018-07-11T07:27:31.579Z,99.90
2018-07-11T07:29:59.758Z,99.90
2018-07-11T07:32:27.921Z,99.90
2018-07-11T07:34:56.073Z,99.90
2018-07-11T07:37:24.299Z,99.90
2018-07-11T07:39:52.473Z,99.90
2018-07-11T07:42:20.644Z,99.90
2018-07-11T07:44:48.809Z,99.90
2018-07-11T07:47:22.310Z,99.90
2018-07-11T07:49:50.480Z,99.90
2018-07-11T07:52:18.730Z,99.90
2018-07-11T07:54:46.957Z,99.90
2018-07-11T07:57:15.267Z,99.90
2018-07-11T07:59:43.440Z,99.90
2018-07-11T08:02:11.600Z,99.90
2018-07-11T08:04:40.166Z,99.90
2018-07-11T08:07:08.356Z,99.90
2018-07-11T08:12:04.472Z,99.90
2018-07-11T08:14:32.684Z,99.90
2018-07-11T08:17:00.870Z,99.90
2018-07-11T08:19:29.104Z,99.90
2018-07-11T08:21:58.386Z,99.90
2018-07-11T08:25:40.669Z,99.90
2018-07-11T08:28:19.073Z,99.90
2018-07-11T08:31:02.375Z,99.90
2018-07-11T08:34:15.947Z,99.90
2018-07-11T08:39:04.828Z,99.90
2018-07-11T08:41:41.004Z,99.90
2018-07-11T08:44:17.648Z,99.90
2018-07-11T08:47:54.488Z,99.90
2018-07-11T08:52:37.616Z,99.90
2018-07-11T08:57:37.669Z,99.90
2018-07-11T09:00:18.075Z,99.90
2018-07-11T09:03:01.529Z,99.90
2018-07-11T09:05:45.788Z,99.90
2018-07-11T09:08:30.121Z,99.90
2018-07-11T09:13:17.232Z,99.90
2018-07-11T09:15:59.686Z,99.90
2018-07-11T09:18:38.590Z,99.90
2018-07-11T09:21:18.271Z,99.90
2018-07-11T09:24:59.636Z,99.90
2018-07-11T09:27:27.863Z,99.90
2018-07-11T09:29:56.059Z,99.90
2018-07-11T09:32:24.271Z,99.90
2018-07-11T09:34:52.543Z,99.90
2018-07-11T09:39:48.770Z,99.90
2018-07-11T09:42:17.028Z,99.90
2018-07-11T09:44:45.243Z,99.90
2018-07-11T09:47:18.908Z,99.90
2018-07-11T09:49:47.245Z,99.40
2018-07-11T09:52:15.483Z,97.40
2018-07-11T09:54:43.698Z,97.50
2018-07-11T09:57:12.254Z,96.50
2018-07-11T09:59:40.524Z,96.90
2018-07-11T10:02:08.751Z,98.10
2018-07-11T10:04:36.988Z,98.60
2018-07-11T10:07:05.600Z,98.10
2018-07-11T10:09:33.846Z,98.70
2018-07-11T10:12:02.129Z,99.30
2018-07-11T10:14:31.260Z,99.90
2018-07-11T10:16:59.424Z,99.90
2018-07-11T10:19:27.614Z,99.90
2018-07-11T10:21:55.809Z,99.90
2018-07-11T10:24:24.083Z,99.90
2018-07-11T10:26:52.388Z,99.90
2018-07-11T10:29:20.631Z,99.90
2018-07-11T10:31:48.763Z,99.90
2018-07-11T10:34:16.942Z,99.90
2018-07-11T10:36:45.115Z,99.90
2018-07-11T10:39:13.336Z,99.90
2018-07-11T10:41:41.497Z,99.90
2018-07-11T10:44:09.676Z,99.90
2018-07-11T10:46:37.875Z,99.90
2018-07-11T10:49:06.045Z,98.70
2018-07-11T10:51:35.069Z,99.20
2018-07-11T10:54:03.331Z,98.70
2018-07-11T10:56:31.505Z,97.50
2018-07-11T10:58:59.704Z,97.20
2018-07-11T11:01:27.914Z,97.30
2018-07-11T11:03:56.114Z,95.90
2018-07-11T11:06:24.267Z,96.50
2018-07-11T11:08:52.463Z,96.60
2018-07-11T11:11:20.645Z,96.00
2018-07-11T11:13:48.953Z,95.60
2018-07-11T11:16:17.216Z,95.40
2018-07-11T11:18:45.478Z,94.90
2018-07-11T11:21:13.711Z,95.70
2018-07-11T11:23:41.892Z,94.90
2018-07-11T11:26:10.339Z,94.40
2018-07-11T11:28:39.524Z,93.90
2018-07-11T11:31:07.681Z,94.10
2018-07-11T11:33:35.929Z,95.20
2018-07-11T11:36:04.228Z,95.40
2018-07-11T11:38:32.554Z,96.40
2018-07-11T11:41:00.765Z,96.70
2018-07-11T11:43:29.183Z,95.80
2018-07-11T11:45:57.425Z,96.10
2018-07-11T11:48:25.642Z,92.70
2018-07-11T11:50:53.880Z,91.60
2018-07-11T11:53:22.114Z,91.40
2018-07-11T11:55:50.328Z,91.30
2018-07-11T11:58:18.614Z,92.50
2018-07-11T12:00:46.781Z,93.20
2018-07-11T12:03:14.983Z,93.30
2018-07-11T12:05:43.212Z,93.70
2018-07-11T12:08:11.531Z,94.30
2018-07-11T12:10:39.732Z,94.70
2018-07-11T12:13:07.951Z,95.20
2018-07-11T12:15:36.139Z,95.50
2018-07-11T12:18:04.413Z,95.10
2018-07-11T12:20:32.621Z,94.20
2018-07-11T12:23:00.788Z,94.40
2018-07-11T12:25:29.003Z,93.90
2018-07-11T12:27:57.233Z,94.10
2018-07-11T12:30:25.377Z,94.40
2018-07-11T12:32:53.533Z,93.20
2018-07-11T12:35:21.693Z,93.30
2018-07-11T12:37:49.816Z,93.20
2018-07-11T12:40:17.976Z,93.00
2018-07-11T12:42:46.136Z,94.40
2018-07-11T12:45:14.276Z,92.50
2018-07-11T12:48:45.419Z,91.60
2018-07-11T12:51:14.367Z,92.00
2018-07-11T12:53:42.486Z,92.70
2018-07-11T12:58:39.104Z,93.00
2018-07-11T13:01:07.991Z,92.00
2018-07-11T13:03:36.124Z,91.60
2018-07-11T13:06:04.315Z,91.40
2018-07-11T13:08:32.508Z,91.10
2018-07-11T13:11:00.707Z,91.20
2018-07-11T13:13:28.882Z,91.50
2018-07-11T13:15:57.160Z,90.70
2018-07-11T13:18:25.223Z,90.00
2018-07-11T13:20:53.449Z,90.00
2018-07-11T13:23:21.652Z,90.30
2018-07-11T13:25:49.903Z,91.60
2018-07-11T13:28:18.721Z,91.70
2018-07-11T13:30:46.927Z,91.20
2018-07-11T13:33:16.768Z,90.90
2018-07-11T13:35:44.979Z,91.70
2018-07-11T13:38:14.284Z,91.20
2018-07-11T13:40:42.888Z,91.60
2018-07-11T13:43:12.081Z,89.80
2018-07-11T13:45:40.393Z,89.10
2018-07-11T13:48:08.625Z,90.00
2018-07-11T13:50:36.837Z,90.00
2018-07-11T13:53:05.066Z,90.30
2018-07-11T13:55:33.471Z,90.50
2018-07-11T14:00:31.356Z,90.20
2018-07-11T14:02:59.624Z,90.30
2018-07-11T14:05:27.894Z,90.90
2018-07-11T14:07:56.110Z,90.10
2018-07-11T14:10:24.324Z,90.60
2018-07-11T14:12:52.617Z,90.40
2018-07-11T14:15:20.970Z,90.70
2018-07-11T14:17:49.292Z,91.70
2018-07-11T14:20:17.503Z,91.50
2018-07-11T14:22:47.179Z,91.40
2018-07-11T14:25:15.567Z,91.70
2018-07-11T14:27:48.079Z,91.00
2018-07-11T14:30:16.206Z,90.60
2018-07-11T14:32:51.211Z,91.10
2018-07-11T14:35:19.533Z,91.20
2018-07-11T14:37:49.136Z,91.10
2018-07-11T14:40:17.445Z,91.40
2018-07-11T14:42:46.173Z,91.60
2018-07-11T14:45:14.879Z,92.00
2018-07-11T14:47:48.441Z,92.70
2018-07-11T14:50:17.022Z,93.30
2018-07-11T14:52:45.897Z,93.20
2018-07-11T14:55:14.199Z,94.20
2018-07-11T14:57:43.586Z,94.40
2018-07-11T15:00:11.777Z,95.00
2018-07-11T15:02:40.002Z,95.40
2018-07-11T15:05:08.206Z,94.10
2018-07-11T15:07:36.418Z,93.90
2018-07-11T15:10:04.704Z,92.60
2018-07-11T15:12:33.255Z,92.70
2018-07-11T15:15:01.402Z,92.60
2018-07-11T15:17:30.067Z,92.80
2018-07-11T15:19:58.222Z,93.10
2018-07-11T15:22:26.787Z,93.80
2018-07-11T15:24:55.077Z,93.40
2018-07-11T15:27:24.646Z,93.30
2018-07-11T15:29:52.763Z,94.10
2018-07-11T15:32:21.238Z,95.00
2018-07-11T15:34:49.508Z,94.90
2018-07-11T15:37:17.701Z,94.90
2018-07-11T15:39:46.116Z,95.10
2018-07-11T15:42:14.317Z,95.20
2018-07-11T15:44:42.724Z,95.60
2018-07-11T15:47:11.880Z,95.50
2018-07-11T15:49:40.143Z,95.70
2018-07-11T15:52:08.581Z,96.30
2018-07-11T15:54:37.573Z,95.40
2018-07-11T15:57:06.314Z,92.30
2018-07-11T15:59:39.660Z,93.00
2018-07-11T16:02:08.176Z,92.30
2018-07-11T16:04:39.820Z,92.10
2018-07-11T16:07:09.190Z,91.60
2018-07-11T16:09:46.859Z,91.30
2018-07-11T16:12:15.225Z,91.40
2018-07-11T16:14:43.500Z,91.10
2018-07-11T16:17:11.736Z,89.90
2018-07-11T16:19:39.959Z,89.70
2018-07-11T16:22:08.148Z,89.00
2018-07-11T16:24:36.684Z,88.70
2018-07-11T16:27:04.846Z,88.80
2018-07-11T16:29:32.977Z,89.00
2018-07-11T16:32:01.184Z,90.10
2018-07-11T16:34:29.474Z,91.00
2018-07-11T16:36:58.544Z,90.90
2018-07-11T16:39:26.721Z,90.80
2018-07-11T16:41:55.062Z,90.90
2018-07-11T16:44:23.202Z,90.50
2018-07-11T16:46:51.524Z,91.10
2018-07-11T16:49:19.747Z,90.80
2018-07-11T16:51:48.543Z,90.90
2018-07-11T16:56:44.709Z,90.90
2018-07-11T16:59:15.377Z,90.80
2018-07-11T17:01:50.663Z,90.60
2018-07-11T17:06:47.924Z,87.50
2018-07-11T17:11:46.169Z,86.20
2018-07-11T17:14:16.403Z,84.80
2018-07-11T17:16:53.917Z,85.30
2018-07-11T17:19:29.776Z,84.40
2018-07-11T17:21:59.856Z,84.90
2018-07-11T17:24:28.763Z,84.60
2018-07-11T17:26:57.867Z,82.60
2018-07-11T17:29:29.091Z,81.10
2018-07-11T17:32:10.303Z,84.00
2018-07-11T17:34:39.264Z,81.60
2018-07-11T17:37:08.887Z,79.80
2018-07-11T17:39:47.717Z,75.60
2018-07-11T17:42:19.632Z,75.10
2018-07-11T17:44:50.215Z,76.50
2018-07-11T17:47:20.941Z,77.20
2018-07-11T17:49:54.122Z,79.10
2018-07-11T17:52:24.571Z,80.90
2018-07-11T17:55:13.628Z,82.20
2018-07-11T17:57:47.652Z,83.80
2018-07-11T18:00:23.561Z,83.70
2018-07-11T18:02:55.290Z,83.60
2018-07-11T18:05:32.121Z,83.30
2018-07-11T18:08:06.063Z,82.80
2018-07-11T18:10:54.259Z,83.10
2018-07-11T18:13:37.832Z,82.50
2018-07-11T18:16:47.202Z,82.70
2018-07-11T18:19:26.800Z,83.20
2018-07-11T18:22:08.186Z,82.70
2018-07-11T18:24:53.138Z,84.60
2018-07-11T18:27:33.376Z,85.40
2018-07-11T18:30:12.361Z,85.60
2018-07-11T18:34:54.293Z,86.90
2018-07-11T18:37:41.765Z,86.30
2018-07-11T18:40:20.825Z,88.20
2018-07-11T18:43:10.150Z,88.20
2018-07-11T18:46:45.145Z,89.50
2018-07-11T18:49:22.248Z,90.30
2018-07-11T18:52:01.447Z,90.10
2018-07-11T18:55:39.724Z,90.60
2018-07-11T18:58:47.498Z,91.40
2018-07-11T19:03:31.313Z,91.60
2018-07-11T19:06:11.630Z,91.90
2018-07-11T19:08:48.477Z,92.50
2018-07-11T19:11:22.342Z,93.30
2018-07-11T19:13:52.436Z,94.10
2018-07-11T19:16:28.241Z,95.00
2018-07-11T19:19:02.692Z,95.90
2018-07-11T19:21:40.683Z,96.70
2018-07-11T19:24:16.675Z,97.50
2018-07-11T19:29:28.705Z,99.00
2018-07-11T19:32:09.841Z,99.90
2018-07-11T19:34:50.300Z,99.90
2018-07-11T19:37:35.781Z,99.90
2018-07-11T19:40:50.976Z,99.90
2018-07-11T19:45:31.896Z,99.90
2018-07-11T19:48:13.060Z,99.90
2018-07-11T19:51:14.137Z,99.90
2018-07-11T19:53:55.991Z,99.90
2018-07-11T19:56:32.017Z,99.90
2018-07-11T19:59:00.101Z,99.90
2018-07-11T20:01:28.339Z,99.90
2018-07-11T20:03:56.614Z,99.90
2018-07-11T20:06:24.871Z,99.90
2018-07-11T20:08:53.268Z,99.90
2018-07-11T20:11:22.217Z,99.90
2018-07-11T20:13:51.526Z,99.90
2018-07-11T20:16:19.827Z,99.90
2018-07-11T20:18:48.036Z,99.90
2018-07-11T20:21:16.416Z,99.90
2018-07-11T20:23:44.695Z,99.90
2018-07-11T20:26:12.902Z,99.90
2018-07-11T20:28:41.244Z,99.90
2018-07-11T20:31:09.541Z,99.90
2018-07-11T20:33:37.784Z,99.90
2018-07-11T20:36:06.027Z,99.90
2018-07-11T20:38:34.501Z,99.90
2018-07-11T20:41:02.825Z,99.90
2018-07-11T20:43:31.103Z,99.90
2018-07-11T20:45:59.488Z,99.90
2018-07-11T20:48:27.679Z,99.90
2018-07-11T20:50:55.919Z,99.90
2018-07-11T20:53:24.204Z,99.90
2018-07-11T20:55:52.514Z,99.90
2018-07-11T20:58:32.038Z,99.90
2018-07-11T21:06:47.045Z,99.90
2018-07-11T21:09:25.902Z,99.90
2018-07-11T21:12:15.959Z,99.90
2018-07-11T21:15:04.430Z,99.90
2018-07-11T21:17:50.761Z,99.90
2018-07-11T21:20:18.929Z,99.90
2018-07-11T21:22:47.972Z,99.90
2018-07-11T21:25:16.204Z,99.90
2018-07-11T21:27:44.428Z,99.90
2018-07-11T21:30:12.556Z,99.90
2018-07-11T21:32:40.740Z,99.90
2018-07-11T21:35:08.947Z,99.90
2018-07-11T21:37:37.148Z,99.90
2018-07-11T21:40:05.337Z,99.90
2018-07-11T21:42:33.449Z,99.90
2018-07-11T21:45:01.603Z,99.90
2018-07-11T21:47:29.789Z,99.90
2018-07-11T21:49:57.959Z,99.90
2018-07-11T21:52:26.174Z,99.90
2018-07-11T21:54:54.690Z,99.90
2018-07-11T21:57:22.895Z,99.90
2018-07-11T21:59:51.687Z,99.90
2018-07-11T22:02:19.838Z,99.90
2018-07-11T22:04:47.972Z,99.90
2018-07-11T22:07:16.166Z,99.90
2018-07-11T22:09:44.361Z,99.90
2018-07-11T22:12:12.644Z,99.90
2018-07-11T22:14:40.877Z,99.90
2018-07-11T22:17:20.428Z,99.90
2018-07-11T22:19:47.642Z,99.90
2018-07-11T22:22:14.841Z,99.90
2018-07-11T22:24:42.047Z,99.90
2018-07-11T22:27:09.235Z,99.90
2018-07-11T22:29:36.552Z,99.90
2018-07-11T22:32:03.731Z,99.90
2018-07-11T22:34:30.899Z,99.90
2018-07-11T22:36:58.071Z,99.90
2018-07-11T22:39:25.277Z,99.90
2018-07-11T22:41:52.476Z,99.90
2018-07-11T22:44:19.923Z,99.90
2018-07-11T22:46:46.970Z,99.90
2018-07-11T22:49:14.163Z,99.90
2018-07-11T22:51:41.373Z,99.90
2018-07-11T22:54:08.590Z,99.90
2018-07-11T22:56:35.803Z,99.90
2018-07-11T22:59:02.987Z,99.90
2018-07-11T23:01:30.164Z,99.90
2018-07-11T23:03:57.440Z,99.90
2018-07-11T23:06:24.685Z,99.90
2018-07-11T23:08:51.871Z,99.90
2018-07-11T23:11:19.052Z,99.90
2018-07-11T23:13:46.274Z,99.90
2018-07-11T23:16:13.466Z,99.90
2018-07-11T23:18:40.655Z,99.90
2018-07-11T23:21:07.848Z,99.90
2018-07-11T23:23:35.029Z,99.90
2018-07-11T23:26:02.257Z,99.90
2018-07-11T23:28:29.477Z,99.90
2018-07-11T23:30:56.740Z,99.90
2018-07-11T23:33:23.977Z,99.90
2018-07-11T23:35:51.168Z,99.90
2018-07-11T23:38:18.368Z,99.90
2018-07-11T23:40:45.573Z,99.90
2018-07-11T23:43:12.844Z,99.90
2018-07-11T23:45:40.058Z,99.90
2018-07-11T23:48:07.253Z,99.90
2018-07-11T23:50:34.487Z,99.90
2018-07-11T23:53:01.654Z,99.90
2018-07-11T23:55:28.839Z,99.90
2018-07-11T23:57:56.056Z,99.90
